sensor_id;sensor_type;location;lat;lon;timestamp;temperature;humidity
8463;DHT22;4268;52.506;13.462;2023-02-10T00:01:04;1.90;99.90
8463;DHT22;4268;52.506;13.462;2023-02-10T00:03:29;1.90;99.90
8463;DHT22;4268;52.506;13.462;2023-02-10T00:05:55;1.90;99.90
8463;DHT22;4268;52.506;13.462;2023-02-10T00:08:20;1.90;99.90
8463;DHT22;4268;52.506;13.462;2023-02-10T00:10:46;1.90;99.90
8463;DHT22;4268;52.506;13.462;2023-02-10T00:13:11;2.00;99.90
8463;DHT22;4268;52.506;13.462;2023-02-10T00:15:37;2.00;99.90
8463;DHT22;4268;52.506;13.462;2023-02-10T00:18:03;2.10;99.90
8463;DHT22;4268;52.506;13.462;2023-02-10T00:20:28;2.00;99.90
8463;DHT22;4268;52.506;13.462;2023-02-10T00:22:54;2.00;99.90
8463;DHT22;4268;52.506;13.462;2023-02-10T00:25:19;2.00;99.90
8463;DHT22;4268;52.506;13.462;2023-02-10T00:27:45;1.90;99.90
8463;DHT22;4268;52.506;13.462;2023-02-10T00:30:11;1.90;99.90
8463;DHT22;4268;52.506;13.462;2023-02-10T00:32:36;1.90;99.90
8463;DHT22;4268;52.506;13.462;2023-02-10T00:35:06;1.90;99.90
8463;DHT22;4268;52.506;13.462;2023-02-10T00:37:31;1.90;99.90
8463;DHT22;4268;52.506;13.462;2023-02-10T00:39:57;1.80;99.90
8463;DHT22;4268;52.506;13.462;2023-02-10T00:42:22;1.80;99.90
8463;DHT22;4268;52.506;13.462;2023-02-10T00:44:48;1.80;99.90
8463;DHT22;4268;52.506;13.462;2023-02-10T00:47:13;1.80;99.90
8463;DHT22;4268;52.506;13.462;2023-02-10T00:49:39;1.80;99.90
8463;DHT22;4268;52.506;13.462;2023-02-10T00:52:04;1.90;99.90
8463;DHT22;4268;52.506;13.462;2023-02-10T00:54:30;1.90;99.90
8463;DHT22;4268;52.506;13.462;2023-02-10T00:56:55;2.00;99.90
8463;DHT22;4268;52.506;13.462;2023-02-10T00:59:21;2.00;99.90
8463;DHT22;4268;52.506;13.462;2023-02-10T01:01:46;2.00;99.90
8463;DHT22;4268;52.506;13.462;2023-02-10T01:04:12;2.00;99.90
8463;DHT22;4268;52.506;13.462;2023-02-10T01:06:38;2.10;99.90
8463;DHT22;4268;52.506;13.462;2023-02-10T01:09:04;2.10;99.90
8463;DHT22;4268;52.506;13.462;2023-02-10T01:11:29;2.10;99.90
8463;DHT22;4268;52.506;13.462;2023-02-10T01:13:55;2.10;99.90
8463;DHT22;4268;52.506;13.462;2023-02-10T01:16:20;2.20;99.90
8463;DHT22;4268;52.506;13.462;2023-02-10T01:18:46;2.20;99.90
8463;DHT22;4268;52.506;13.462;2023-02-10T01:21:15;2.10;99.90
8463;DHT22;4268;52.506;13.462;2023-02-10T01:23:40;2.10;99.90
8463;DHT22;4268;52.506;13.462;2023-02-10T01:26:07;2.00;99.90
8463;DHT22;4268;52.506;13.462;2023-02-10T01:28:33;1.90;99.90
8463;DHT22;4268;52.506;13.462;2023-02-10T01:31:04;1.80;99.90
8463;DHT22;4268;52.506;13.462;2023-02-10T01:33:30;1.80;99.90
8463;DHT22;4268;52.506;13.462;2023-02-10T01:35:55;1.70;99.90
8463;DHT22;4268;52.506;13.462;2023-02-10T01:38:21;1.70;99.90
8463;DHT22;4268;52.506;13.462;2023-02-10T01:40:49;1.60;99.90
8463;DHT22;4268;52.506;13.462;2023-02-10T01:43:16;1.60;99.90
8463;DHT22;4268;52.506;13.462;2023-02-10T01:45:42;1.60;99.90
8463;DHT22;4268;52.506;13.462;2023-02-10T01:48:08;1.50;99.90
8463;DHT22;4268;52.506;13.462;2023-02-10T01:50:41;1.50;99.90
8463;DHT22;4268;52.506;13.462;2023-02-10T01:53:08;1.40;99.90
8463;DHT22;4268;52.506;13.462;2023-02-10T01:55:36;1.40;99.90
8463;DHT22;4268;52.506;13.462;2023-02-10T01:58:06;1.40;99.90
8463;DHT22;4268;52.506;13.462;2023-02-10T02:00:33;1.40;99.90
8463;DHT22;4268;52.506;13.462;2023-02-10T02:03:00;1.30;99.90
8463;DHT22;4268;52.506;13.462;2023-02-10T02:05:35;1.30;99.90
8463;DHT22;4268;52.506;13.462;2023-02-10T02:08:22;1.30;99.90
8463;DHT22;4268;52.506;13.462;2023-02-10T02:17:02;1.30;99.90
8463;DHT22;4268;52.506;13.462;2023-02-10T02:25:57;1.20;99.90
8463;DHT22;4268;52.506;13.462;2023-02-10T02:33:55;1.20;99.90
8463;DHT22;4268;52.506;13.462;2023-02-10T02:36:39;1.20;99.90
8463;DHT22;4268;52.506;13.462;2023-02-10T02:39:06;1.10;99.90
8463;DHT22;4268;52.506;13.462;2023-02-10T02:41:33;1.10;99.90
8463;DHT22;4268;52.506;13.462;2023-02-10T02:44:00;1.30;99.90
8463;DHT22;4268;52.506;13.462;2023-02-10T02:49:12;1.20;99.90
8463;DHT22;4268;52.506;13.462;2023-02-10T02:54:26;1.20;99.90
8463;DHT22;4268;52.506;13.462;2023-02-10T02:57:11;1.30;99.90
8463;DHT22;4268;52.506;13.462;2023-02-10T02:59:56;1.30;99.90
8463;DHT22;4268;52.506;13.462;2023-02-10T03:02:24;1.30;99.90
8463;DHT22;4268;52.506;13.462;2023-02-10T03:04:54;1.30;99.90
8463;DHT22;4268;52.506;13.462;2023-02-10T03:07:20;1.30;99.90
8463;DHT22;4268;52.506;13.462;2023-02-10T03:09:45;1.30;99.90
8463;DHT22;4268;52.506;13.462;2023-02-10T03:12:11;1.30;99.90
8463;DHT22;4268;52.506;13.462;2023-02-10T03:14:38;1.30;99.90
8463;DHT22;4268;52.506;13.462;2023-02-10T03:17:04;1.30;99.90
8463;DHT22;4268;52.506;13.462;2023-02-10T03:19:29;1.30;99.90
8463;DHT22;4268;52.506;13.462;2023-02-10T03:21:55;1.40;99.90
8463;DHT22;4268;52.506;13.462;2023-02-10T03:24:20;1.30;99.90
8463;DHT22;4268;52.506;13.462;2023-02-10T03:26:46;1.30;99.90
8463;DHT22;4268;52.506;13.462;2023-02-10T03:29:13;1.40;99.90
8463;DHT22;4268;52.506;13.462;2023-02-10T03:31:39;1.30;99.90
8463;DHT22;4268;52.506;13.462;2023-02-10T03:34:05;1.40;99.90
8463;DHT22;4268;52.506;13.462;2023-02-10T03:36:30;1.40;99.90
8463;DHT22;4268;52.506;13.462;2023-02-10T03:38:59;1.40;99.90
8463;DHT22;4268;52.506;13.462;2023-02-10T03:41:24;1.40;99.90
8463;DHT22;4268;52.506;13.462;2023-02-10T03:43:50;1.40;99.90
8463;DHT22;4268;52.506;13.462;2023-02-10T03:46:15;1.50;99.90
8463;DHT22;4268;52.506;13.462;2023-02-10T03:48:41;1.50;99.90
8463;DHT22;4268;52.506;13.462;2023-02-10T03:51:07;1.50;99.90
8463;DHT22;4268;52.506;13.462;2023-02-10T03:53:33;1.60;99.90
8463;DHT22;4268;52.506;13.462;2023-02-10T03:55:59;1.60;99.90
8463;DHT22;4268;52.506;13.462;2023-02-10T03:58:25;1.60;99.90
8463;DHT22;4268;52.506;13.462;2023-02-10T04:00:50;1.60;99.90
8463;DHT22;4268;52.506;13.462;2023-02-10T04:03:16;1.70;99.90
8463;DHT22;4268;52.506;13.462;2023-02-10T04:05:41;1.70;99.90
8463;DHT22;4268;52.506;13.462;2023-02-10T04:08:07;1.70;99.90
8463;DHT22;4268;52.506;13.462;2023-02-10T04:10:33;1.70;99.90
8463;DHT22;4268;52.506;13.462;2023-02-10T04:12:58;1.70;99.90
8463;DHT22;4268;52.506;13.462;2023-02-10T04:15:24;1.80;99.90
8463;DHT22;4268;52.506;13.462;2023-02-10T04:17:49;1.80;99.90
8463;DHT22;4268;52.506;13.462;2023-02-10T04:20:15;1.80;99.90
8463;DHT22;4268;52.506;13.462;2023-02-10T04:22:41;1.80;99.90
8463;DHT22;4268;52.506;13.462;2023-02-10T04:25:07;1.80;99.90
8463;DHT22;4268;52.506;13.462;2023-02-10T04:27:33;1.80;99.90
8463;DHT22;4268;52.506;13.462;2023-02-10T04:29:59;1.90;99.90
8463;DHT22;4268;52.506;13.462;2023-02-10T04:32:25;1.90;99.90
8463;DHT22;4268;52.506;13.462;2023-02-10T04:34:50;1.90;99.90
8463;DHT22;4268;52.506;13.462;2023-02-10T04:37:16;1.90;99.90
8463;DHT22;4268;52.506;13.462;2023-02-10T04:39:41;1.90;99.90
8463;DHT22;4268;52.506;13.462;2023-02-10T04:42:07;1.90;99.90
8463;DHT22;4268;52.506;13.462;2023-02-10T04:44:32;1.80;99.90
8463;DHT22;4268;52.506;13.462;2023-02-10T04:46:58;1.80;99.90
8463;DHT22;4268;52.506;13.462;2023-02-10T04:49:26;1.90;99.90
8463;DHT22;4268;52.506;13.462;2023-02-10T04:51:52;1.90;99.90
8463;DHT22;4268;52.506;13.462;2023-02-10T04:54:18;2.00;99.90
8463;DHT22;4268;52.506;13.462;2023-02-10T04:56:43;1.90;99.90
8463;DHT22;4268;52.506;13.462;2023-02-10T04:59:09;2.00;99.90
8463;DHT22;4268;52.506;13.462;2023-02-10T05:01:35;2.00;99.90
8463;DHT22;4268;52.506;13.462;2023-02-10T05:04:00;2.00;99.90
8463;DHT22;4268;52.506;13.462;2023-02-10T05:06:26;2.00;99.90
8463;DHT22;4268;52.506;13.462;2023-02-10T05:08:51;2.00;99.90
8463;DHT22;4268;52.506;13.462;2023-02-10T05:11:17;2.00;99.90
8463;DHT22;4268;52.506;13.462;2023-02-10T05:13:43;2.00;99.90
8463;DHT22;4268;52.506;13.462;2023-02-10T05:16:10;2.00;99.90
8463;DHT22;4268;52.506;13.462;2023-02-10T05:18:37;2.00;99.90
8463;DHT22;4268;52.506;13.462;2023-02-10T05:21:05;2.00;99.90
8463;DHT22;4268;52.506;13.462;2023-02-10T05:23:32;2.10;99.90
8463;DHT22;4268;52.506;13.462;2023-02-10T05:25:57;2.10;99.90
8463;DHT22;4268;52.506;13.462;2023-02-10T05:28:23;2.10;99.90
8463;DHT22;4268;52.506;13.462;2023-02-10T05:30:48;2.10;99.90
8463;DHT22;4268;52.506;13.462;2023-02-10T05:33:14;2.10;99.90
8463;DHT22;4268;52.506;13.462;2023-02-10T05:35:39;2.10;99.90
8463;DHT22;4268;52.506;13.462;2023-02-10T05:38:05;2.10;99.90
8463;DHT22;4268;52.506;13.462;2023-02-10T05:40:31;2.10;99.90
8463;DHT22;4268;52.506;13.462;2023-02-10T05:42:57;2.10;99.90
8463;DHT22;4268;52.506;13.462;2023-02-10T05:45:22;2.10;99.90
8463;DHT22;4268;52.506;13.462;2023-02-10T05:47:48;0.90;99.90
8463;DHT22;4268;52.506;13.462;2023-02-10T05:50:14;1.90;99.90
8463;DHT22;4268;52.506;13.462;2023-02-10T05:52:40;1.90;99.90
8463;DHT22;4268;52.506;13.462;2023-02-10T05:55:06;1.90;99.90
8463;DHT22;4268;52.506;13.462;2023-02-10T05:57:31;1.80;99.90
8463;DHT22;4268;52.506;13.462;2023-02-10T05:59:57;1.80;99.90
8463;DHT22;4268;52.506;13.462;2023-02-10T06:02:23;1.70;99.90
8463;DHT22;4268;52.506;13.462;2023-02-10T06:04:48;1.70;99.90
8463;DHT22;4268;52.506;13.462;2023-02-10T06:07:14;1.60;99.90
8463;DHT22;4268;52.506;13.462;2023-02-10T06:09:41;1.60;99.90
8463;DHT22;4268;52.506;13.462;2023-02-10T06:12:07;1.60;99.90
8463;DHT22;4268;52.506;13.462;2023-02-10T06:14:32;1.60;99.90
8463;DHT22;4268;52.506;13.462;2023-02-10T06:16:57;1.50;99.90
8463;DHT22;4268;52.506;13.462;2023-02-10T06:19:23;1.50;99.90
8463;DHT22;4268;52.506;13.462;2023-02-10T06:21:49;1.50;99.90
8463;DHT22;4268;52.506;13.462;2023-02-10T06:24:15;1.50;99.90
8463;DHT22;4268;52.506;13.462;2023-02-10T06:26:40;1.50;99.90
8463;DHT22;4268;52.506;13.462;2023-02-10T06:29:06;1.60;99.90
8463;DHT22;4268;52.506;13.462;2023-02-10T06:31:32;1.60;99.90
8463;DHT22;4268;52.506;13.462;2023-02-10T06:33:57;1.60;99.90
8463;DHT22;4268;52.506;13.462;2023-02-10T06:36:23;1.60;99.90
8463;DHT22;4268;52.506;13.462;2023-02-10T06:38:48;1.60;99.90
8463;DHT22;4268;52.506;13.462;2023-02-10T06:41:14;1.60;99.90
8463;DHT22;4268;52.506;13.462;2023-02-10T06:43:40;1.70;99.90
8463;DHT22;4268;52.506;13.462;2023-02-10T06:46:05;1.70;99.90
8463;DHT22;4268;52.506;13.462;2023-02-10T06:48:32;1.70;99.90
8463;DHT22;4268;52.506;13.462;2023-02-10T06:50:58;1.70;99.90
8463;DHT22;4268;52.506;13.462;2023-02-10T06:53:23;1.70;99.90
8463;DHT22;4268;52.506;13.462;2023-02-10T06:55:49;1.70;99.90
8463;DHT22;4268;52.506;13.462;2023-02-10T06:58:15;1.80;99.90
8463;DHT22;4268;52.506;13.462;2023-02-10T07:00:40;1.90;99.90
8463;DHT22;4268;52.506;13.462;2023-02-10T07:03:05;1.90;99.90
8463;DHT22;4268;52.506;13.462;2023-02-10T07:05:31;2.10;99.90
8463;DHT22;4268;52.506;13.462;2023-02-10T07:07:56;2.00;99.90
8463;DHT22;4268;52.506;13.462;2023-02-10T07:10:24;2.00;99.90
8463;DHT22;4268;52.506;13.462;2023-02-10T07:12:50;2.10;99.90
8463;DHT22;4268;52.506;13.462;2023-02-10T07:15:17;2.10;99.90
8463;DHT22;4268;52.506;13.462;2023-02-10T07:17:44;2.10;99.90
8463;DHT22;4268;52.506;13.462;2023-02-10T07:20:10;2.20;99.90
8463;DHT22;4268;52.506;13.462;2023-02-10T07:22:35;2.30;99.90
8463;DHT22;4268;52.506;13.462;2023-02-10T07:25:01;2.30;99.90
8463;DHT22;4268;52.506;13.462;2023-02-10T07:27:26;2.40;99.90
8463;DHT22;4268;52.506;13.462;2023-02-10T07:29:52;2.40;99.90
8463;DHT22;4268;52.506;13.462;2023-02-10T07:32:17;2.60;99.90
8463;DHT22;4268;52.506;13.462;2023-02-10T07:34:43;2.80;99.90
8463;DHT22;4268;52.506;13.462;2023-02-10T07:37:08;3.00;99.90
8463;DHT22;4268;52.506;13.462;2023-02-10T07:39:34;3.20;99.90
8463;DHT22;4268;52.506;13.462;2023-02-10T07:42:00;3.50;99.90
8463;DHT22;4268;52.506;13.462;2023-02-10T07:44:25;3.70;99.90
8463;DHT22;4268;52.506;13.462;2023-02-10T07:46:51;3.80;99.90
8463;DHT22;4268;52.506;13.462;2023-02-10T07:49:17;3.80;99.90
8463;DHT22;4268;52.506;13.462;2023-02-10T07:51:43;3.90;99.90
8463;DHT22;4268;52.506;13.462;2023-02-10T07:54:09;3.90;99.90
8463;DHT22;4268;52.506;13.462;2023-02-10T07:56:35;3.70;99.90
8463;DHT22;4268;52.506;13.462;2023-02-10T07:59:00;3.60;99.90
8463;DHT22;4268;52.506;13.462;2023-02-10T08:01:26;3.50;99.90
8463;DHT22;4268;52.506;13.462;2023-02-10T08:03:51;3.40;99.90
8463;DHT22;4268;52.506;13.462;2023-02-10T08:06:21;3.40;99.90
8463;DHT22;4268;52.506;13.462;2023-02-10T08:08:47;3.30;99.90
8463;DHT22;4268;52.506;13.462;2023-02-10T08:11:13;3.30;99.90
8463;DHT22;4268;52.506;13.462;2023-02-10T08:13:38;3.30;99.90
8463;DHT22;4268;52.506;13.462;2023-02-10T08:16:05;3.40;99.90
8463;DHT22;4268;52.506;13.462;2023-02-10T08:18:35;3.40;99.90
8463;DHT22;4268;52.506;13.462;2023-02-10T08:21:01;3.50;99.90
8463;DHT22;4268;52.506;13.462;2023-02-10T08:23:27;3.50;99.90
8463;DHT22;4268;52.506;13.462;2023-02-10T08:25:52;3.60;99.90
8463;DHT22;4268;52.506;13.462;2023-02-10T08:28:18;3.70;99.90
8463;DHT22;4268;52.506;13.462;2023-02-10T08:30:44;3.70;99.90
8463;DHT22;4268;52.506;13.462;2023-02-10T08:33:10;3.80;99.90
8463;DHT22;4268;52.506;13.462;2023-02-10T08:35:36;3.90;99.90
8463;DHT22;4268;52.506;13.462;2023-02-10T08:38:02;3.90;99.90
8463;DHT22;4268;52.506;13.462;2023-02-10T08:40:28;3.90;99.90
8463;DHT22;4268;52.506;13.462;2023-02-10T08:42:54;4.00;99.90
8463;DHT22;4268;52.506;13.462;2023-02-10T08:45:19;3.90;99.90
8463;DHT22;4268;52.506;13.462;2023-02-10T08:47:45;4.00;99.90
8463;DHT22;4268;52.506;13.462;2023-02-10T08:50:10;4.10;99.90
8463;DHT22;4268;52.506;13.462;2023-02-10T08:52:36;4.10;99.90
8463;DHT22;4268;52.506;13.462;2023-02-10T08:55:02;4.20;99.90
8463;DHT22;4268;52.506;13.462;2023-02-10T08:57:27;4.40;99.90
8463;DHT22;4268;52.506;13.462;2023-02-10T08:59:53;4.40;99.90
8463;DHT22;4268;52.506;13.462;2023-02-10T09:02:18;4.50;99.90
8463;DHT22;4268;52.506;13.462;2023-02-10T09:04:44;4.50;99.90
8463;DHT22;4268;52.506;13.462;2023-02-10T09:07:10;4.60;99.90
8463;DHT22;4268;52.506;13.462;2023-02-10T09:09:39;4.70;99.90
8463;DHT22;4268;52.506;13.462;2023-02-10T09:12:05;4.80;99.90
8463;DHT22;4268;52.506;13.462;2023-02-10T09:14:31;4.90;99.90
8463;DHT22;4268;52.506;13.462;2023-02-10T09:16:56;4.90;99.90
8463;DHT22;4268;52.506;13.462;2023-02-10T09:19:22;4.90;99.90
8463;DHT22;4268;52.506;13.462;2023-02-10T09:21:49;5.00;99.90
8463;DHT22;4268;52.506;13.462;2023-02-10T09:24:15;5.00;99.90
8463;DHT22;4268;52.506;13.462;2023-02-10T09:26:42;4.90;99.90
8463;DHT22;4268;52.506;13.462;2023-02-10T09:29:07;4.90;99.90
8463;DHT22;4268;52.506;13.462;2023-02-10T09:31:33;4.80;99.90
8463;DHT22;4268;52.506;13.462;2023-02-10T09:33:59;4.90;99.90
8463;DHT22;4268;52.506;13.462;2023-02-10T09:36:25;4.80;99.90
8463;DHT22;4268;52.506;13.462;2023-02-10T09:38:50;4.80;99.90
8463;DHT22;4268;52.506;13.462;2023-02-10T09:47:05;5.10;99.90
8463;DHT22;4268;52.506;13.462;2023-02-10T09:52:50;5.20;99.90
8463;DHT22;4268;52.506;13.462;2023-02-10T09:55:46;5.30;99.90
8463;DHT22;4268;52.506;13.462;2023-02-10T09:58:35;6.40;99.90
8463;DHT22;4268;52.506;13.462;2023-02-10T10:01:22;5.50;99.90
8463;DHT22;4268;52.506;13.462;2023-02-10T10:06:31;5.50;99.90
8463;DHT22;4268;52.506;13.462;2023-02-10T10:14:26;5.60;99.90
8463;DHT22;4268;52.506;13.462;2023-02-10T10:19:58;5.50;99.90
8463;DHT22;4268;52.506;13.462;2023-02-10T10:25:57;5.70;99.90
8463;DHT22;4268;52.506;13.462;2023-02-10T10:28:53;5.60;99.90
8463;DHT22;4268;52.506;13.462;2023-02-10T10:31:33;5.60;99.90
8463;DHT22;4268;52.506;13.462;2023-02-10T10:36:38;5.70;99.90
8463;DHT22;4268;52.506;13.462;2023-02-10T10:39:44;5.70;99.90
8463;DHT22;4268;52.506;13.462;2023-02-10T10:45:05;5.80;99.90
8463;DHT22;4268;52.506;13.462;2023-02-10T10:47:41;5.80;99.90
8463;DHT22;4268;52.506;13.462;2023-02-10T10:50:13;5.80;99.90
8463;DHT22;4268;52.506;13.462;2023-02-10T10:52:41;5.80;99.90
8463;DHT22;4268;52.506;13.462;2023-02-10T10:55:21;5.90;99.90
8463;DHT22;4268;52.506;13.462;2023-02-10T10:57:47;5.90;99.90
8463;DHT22;4268;52.506;13.462;2023-02-10T11:00:18;5.90;99.90
8463;DHT22;4268;52.506;13.462;2023-02-10T11:03:01;6.00;99.90
8463;DHT22;4268;52.506;13.462;2023-02-10T11:05:35;6.10;99.90
8463;DHT22;4268;52.506;13.462;2023-02-10T11:08:04;6.30;99.90
8463;DHT22;4268;52.506;13.462;2023-02-10T11:13:01;6.20;99.90
8463;DHT22;4268;52.506;13.462;2023-02-10T11:15:32;6.10;99.90
8463;DHT22;4268;52.506;13.462;2023-02-10T11:18:00;6.20;99.90
8463;DHT22;4268;52.506;13.462;2023-02-10T11:20:31;6.10;99.90
8463;DHT22;4268;52.506;13.462;2023-02-10T11:23:00;6.00;99.90
8463;DHT22;4268;52.506;13.462;2023-02-10T11:25:35;6.00;99.90
8463;DHT22;4268;52.506;13.462;2023-02-10T11:28:02;6.00;99.90
8463;DHT22;4268;52.506;13.462;2023-02-10T11:30:38;5.90;99.90
8463;DHT22;4268;52.506;13.462;2023-02-10T11:33:06;5.90;99.90
8463;DHT22;4268;52.506;13.462;2023-02-10T11:35:33;5.80;99.90
8463;DHT22;4268;52.506;13.462;2023-02-10T11:38:02;5.90;99.90
8463;DHT22;4268;52.506;13.462;2023-02-10T11:40:30;5.90;99.90
8463;DHT22;4268;52.506;13.462;2023-02-10T11:42:58;6.00;99.90
8463;DHT22;4268;52.506;13.462;2023-02-10T11:45:31;6.00;99.90
8463;DHT22;4268;52.506;13.462;2023-02-10T11:48:26;6.00;99.90
8463;DHT22;4268;52.506;13.462;2023-02-10T11:51:13;6.00;99.90
8463;DHT22;4268;52.506;13.462;2023-02-10T11:53:40;6.00;99.90
8463;DHT22;4268;52.506;13.462;2023-02-10T12:05:18;6.10;99.90
8463;DHT22;4268;52.506;13.462;2023-02-10T12:08:15;6.00;99.90
8463;DHT22;4268;52.506;13.462;2023-02-10T12:10:47;6.10;99.90
8463;DHT22;4268;52.506;13.462;2023-02-10T12:13:41;6.10;99.90
8463;DHT22;4268;52.506;13.462;2023-02-10T12:18:50;6.20;99.90
8463;DHT22;4268;52.506;13.462;2023-02-10T12:21:42;6.20;99.90
8463;DHT22;4268;52.506;13.462;2023-02-10T12:40:38;6.40;99.90
8463;DHT22;4268;52.506;13.462;2023-02-10T12:43:40;6.40;99.90
8463;DHT22;4268;52.506;13.462;2023-02-10T12:49:05;6.50;99.90
8463;DHT22;4268;52.506;13.462;2023-02-10T12:51:56;6.60;99.90
8463;DHT22;4268;52.506;13.462;2023-02-10T12:54:32;6.80;99.90
8463;DHT22;4268;52.506;13.462;2023-02-10T12:57:05;6.80;99.90
8463;DHT22;4268;52.506;13.462;2023-02-10T13:02:23;6.90;99.90
8463;DHT22;4268;52.506;13.462;2023-02-10T13:04:53;6.80;99.90
8463;DHT22;4268;52.506;13.462;2023-02-10T13:07:54;6.70;99.90
8463;DHT22;4268;52.506;13.462;2023-02-10T13:10:35;6.70;99.90
8463;DHT22;4268;52.506;13.462;2023-02-10T13:13:07;6.50;99.90
8463;DHT22;4268;52.506;13.462;2023-02-10T13:16:09;6.50;99.90
8463;DHT22;4268;52.506;13.462;2023-02-10T13:18:50;6.40;99.90
8463;DHT22;4268;52.506;13.462;2023-02-10T13:24:07;6.40;99.90
8463;DHT22;4268;52.506;13.462;2023-02-10T13:29:45;6.50;99.90
8463;DHT22;4268;52.506;13.462;2023-02-10T13:32:31;6.80;99.90
8463;DHT22;4268;52.506;13.462;2023-02-10T13:35:06;6.70;99.90
8463;DHT22;4268;52.506;13.462;2023-02-10T13:37:39;6.70;99.90
8463;DHT22;4268;52.506;13.462;2023-02-10T13:40:53;6.70;99.90
8463;DHT22;4268;52.506;13.462;2023-02-10T13:43:26;6.60;99.90
8463;DHT22;4268;52.506;13.462;2023-02-10T13:45:54;6.60;99.90
8463;DHT22;4268;52.506;13.462;2023-02-10T13:48:23;6.50;99.90
8463;DHT22;4268;52.506;13.462;2023-02-10T13:50:57;6.60;99.90
8463;DHT22;4268;52.506;13.462;2023-02-10T13:56:22;6.60;99.90
8463;DHT22;4268;52.506;13.462;2023-02-10T13:58:56;6.60;99.90
8463;DHT22;4268;52.506;13.462;2023-02-10T14:01:41;6.60;99.90
8463;DHT22;4268;52.506;13.462;2023-02-10T14:04:27;6.60;99.90
8463;DHT22;4268;52.506;13.462;2023-02-10T14:06:54;6.60;99.90
8463;DHT22;4268;52.506;13.462;2023-02-10T14:12:01;6.70;99.90
8463;DHT22;4268;52.506;13.462;2023-02-10T14:19:40;6.90;99.90
8463;DHT22;4268;52.506;13.462;2023-02-10T14:22:18;6.80;99.90
8463;DHT22;4268;52.506;13.462;2023-02-10T14:24:46;6.80;99.90
8463;DHT22;4268;52.506;13.462;2023-02-10T14:27:13;6.90;99.90
8463;DHT22;4268;52.506;13.462;2023-02-10T14:29:53;6.90;99.90
8463;DHT22;4268;52.506;13.462;2023-02-10T14:32:19;6.90;99.90
8463;DHT22;4268;52.506;13.462;2023-02-10T14:35:03;6.80;99.90
8463;DHT22;4268;52.506;13.462;2023-02-10T14:37:31;6.70;99.90
8463;DHT22;4268;52.506;13.462;2023-02-10T14:39:58;6.60;99.90
8463;DHT22;4268;52.506;13.462;2023-02-10T14:42:28;6.70;99.90
8463;DHT22;4268;52.506;13.462;2023-02-10T14:44:58;6.70;99.90
8463;DHT22;4268;52.506;13.462;2023-02-10T14:47:33;6.70;99.90
8463;DHT22;4268;52.506;13.462;2023-02-10T14:50:00;6.70;99.90
8463;DHT22;4268;52.506;13.462;2023-02-10T14:52:33;6.70;99.90
8463;DHT22;4268;52.506;13.462;2023-02-10T14:54:59;6.70;99.90
8463;DHT22;4268;52.506;13.462;2023-02-10T14:57:27;6.70;99.90
8463;DHT22;4268;52.506;13.462;2023-02-10T15:00:00;6.70;99.90
8463;DHT22;4268;52.506;13.462;2023-02-10T15:02:29;6.60;99.90
8463;DHT22;4268;52.506;13.462;2023-02-10T15:04:57;6.60;99.90
8463;DHT22;4268;52.506;13.462;2023-02-10T15:07:27;6.50;99.90
8463;DHT22;4268;52.506;13.462;2023-02-10T15:09:54;6.50;99.90
8463;DHT22;4268;52.506;13.462;2023-02-10T15:12:21;6.50;99.90
8463;DHT22;4268;52.506;13.462;2023-02-10T15:14:52;6.40;99.90
8463;DHT22;4268;52.506;13.462;2023-02-10T15:17:31;6.40;99.90
8463;DHT22;4268;52.506;13.462;2023-02-10T15:20:03;6.30;99.90
8463;DHT22;4268;52.506;13.462;2023-02-10T15:22:49;6.20;99.90
8463;DHT22;4268;52.506;13.462;2023-02-10T15:33:24;6.20;99.90
8463;DHT22;4268;52.506;13.462;2023-02-10T15:41:33;6.00;99.90
8463;DHT22;4268;52.506;13.462;2023-02-10T15:46:46;5.90;99.90
8463;DHT22;4268;52.506;13.462;2023-02-10T15:49:14;5.80;99.90
8463;DHT22;4268;52.506;13.462;2023-02-10T15:51:58;6.30;99.90
8463;DHT22;4268;52.506;13.462;2023-02-10T15:54:25;5.60;99.90
8463;DHT22;4268;52.506;13.462;2023-02-10T15:57:01;5.60;99.90
8463;DHT22;4268;52.506;13.462;2023-02-10T15:59:28;5.50;99.90
8463;DHT22;4268;52.506;13.462;2023-02-10T16:01:58;5.50;99.90
8463;DHT22;4268;52.506;13.462;2023-02-10T16:04:25;5.40;99.90
8463;DHT22;4268;52.506;13.462;2023-02-10T16:06:51;5.40;99.90
8463;DHT22;4268;52.506;13.462;2023-02-10T16:09:17;5.30;99.90
8463;DHT22;4268;52.506;13.462;2023-02-10T16:11:42;5.30;99.90
8463;DHT22;4268;52.506;13.462;2023-02-10T16:14:08;5.20;99.90
8463;DHT22;4268;52.506;13.462;2023-02-10T16:16:41;5.20;99.90
8463;DHT22;4268;52.506;13.462;2023-02-10T16:19:10;5.20;99.90
8463;DHT22;4268;52.506;13.462;2023-02-10T16:21:36;5.20;99.90
8463;DHT22;4268;52.506;13.462;2023-02-10T16:24:02;5.10;99.90
8463;DHT22;4268;52.506;13.462;2023-02-10T16:26:28;5.00;99.90
8463;DHT22;4268;52.506;13.462;2023-02-10T16:28:54;5.00;99.90
8463;DHT22;4268;52.506;13.462;2023-02-10T16:31:22;5.00;99.90
8463;DHT22;4268;52.506;13.462;2023-02-10T16:33:47;5.00;99.90
8463;DHT22;4268;52.506;13.462;2023-02-10T16:36:14;5.00;99.90
8463;DHT22;4268;52.506;13.462;2023-02-10T16:38:41;4.90;99.90
8463;DHT22;4268;52.506;13.462;2023-02-10T16:41:07;4.90;99.90
8463;DHT22;4268;52.506;13.462;2023-02-10T16:43:34;4.90;99.90
8463;DHT22;4268;52.506;13.462;2023-02-10T16:45:59;4.80;99.90
8463;DHT22;4268;52.506;13.462;2023-02-10T16:48:25;4.80;99.90
8463;DHT22;4268;52.506;13.462;2023-02-10T16:50:51;4.80;99.90
8463;DHT22;4268;52.506;13.462;2023-02-10T16:53:16;4.70;99.90
8463;DHT22;4268;52.506;13.462;2023-02-10T16:55:42;4.70;99.90
8463;DHT22;4268;52.506;13.462;2023-02-10T16:58:13;4.70;99.90
8463;DHT22;4268;52.506;13.462;2023-02-10T17:00:38;4.70;99.90
8463;DHT22;4268;52.506;13.462;2023-02-10T17:03:04;4.60;99.90
8463;DHT22;4268;52.506;13.462;2023-02-10T17:05:29;4.70;99.90
8463;DHT22;4268;52.506;13.462;2023-02-10T17:07:57;4.60;99.90
8463;DHT22;4268;52.506;13.462;2023-02-10T17:10:28;4.60;99.90
8463;DHT22;4268;52.506;13.462;2023-02-10T17:12:54;4.50;99.90
8463;DHT22;4268;52.506;13.462;2023-02-10T17:15:20;4.50;99.90
8463;DHT22;4268;52.506;13.462;2023-02-10T17:17:47;4.50;99.90
8463;DHT22;4268;52.506;13.462;2023-02-10T17:20:20;4.50;99.90
8463;DHT22;4268;52.506;13.462;2023-02-10T17:22:46;4.50;99.90
8463;DHT22;4268;52.506;13.462;2023-02-10T17:25:12;4.40;99.90
8463;DHT22;4268;52.506;13.462;2023-02-10T17:27:38;4.40;99.90
8463;DHT22;4268;52.506;13.462;2023-02-10T17:30:04;4.50;99.90
8463;DHT22;4268;52.506;13.462;2023-02-10T17:32:29;4.40;99.90
8463;DHT22;4268;52.506;13.462;2023-02-10T17:34:55;4.40;99.90
8463;DHT22;4268;52.506;13.462;2023-02-10T17:37:20;4.50;99.90
8463;DHT22;4268;52.506;13.462;2023-02-10T17:39:46;4.50;99.90
8463;DHT22;4268;52.506;13.462;2023-02-10T17:42:14;4.50;99.90
8463;DHT22;4268;52.506;13.462;2023-02-10T17:44:42;4.60;99.90
8463;DHT22;4268;52.506;13.462;2023-02-10T17:47:08;4.60;99.90
8463;DHT22;4268;52.506;13.462;2023-02-10T17:49:33;4.60;99.90
8463;DHT22;4268;52.506;13.462;2023-02-10T17:51:59;4.60;99.90
8463;DHT22;4268;52.506;13.462;2023-02-10T17:54:25;4.60;99.90
8463;DHT22;4268;52.506;13.462;2023-02-10T17:56:51;4.60;99.90
8463;DHT22;4268;52.506;13.462;2023-02-10T17:59:17;4.60;99.90
8463;DHT22;4268;52.506;13.462;2023-02-10T18:01:44;4.60;99.90
8463;DHT22;4268;52.506;13.462;2023-02-10T18:04:10;4.70;99.90
8463;DHT22;4268;52.506;13.462;2023-02-10T18:06:37;4.70;99.90
8463;DHT22;4268;52.506;13.462;2023-02-10T18:09:03;4.70;99.90
8463;DHT22;4268;52.506;13.462;2023-02-10T18:11:29;4.70;99.90
8463;DHT22;4268;52.506;13.462;2023-02-10T18:13:58;4.60;99.90